Capitol Logistics 614


SKRG
José María Córdova International Airport
Medellin, CO
KMIA
Miami International Airport
Miami, US

Route Details

Aircraft Information
Primary: Boeing 767-300BDSF
Backup: Not Available
Route Data
Distance: 1271nm
Sched. Duration: 3h 29m
Avg. Duration: 3h 12m (-17m)
Times Flown: 5
Recm'd Route: BUTAL UQ105 KILER UG430 UCA UA301 URSUS FLIPR5
Planned Altitude: 34,000ft
Origin Wx: SKRG 290500Z VRB02KT 9999 VCSH OVC010 15/15 A3029 NOSIG RMK VCSH E/SE
Dest. Wx: KMIA 290453Z 11010KT 10SM FEW019 27/24 A2998 RMK AO2 SLP153 T02720239 403110267 $
Notes:

Financial History
Total Freight: 393,436lbs
Average Load: 78,687lbs/flt
Fuel Used: 140,625lbs
Avg. Fuel Used: 28,125lbs/flt
Fuel Expense: $84,761
Avg. Fuel Expense: $16,952
Avg. Fuel Cost: $0.63/lbs
Total Gross Income: $961,211
Pilot Pay: $965
Total Expenses: $91,991
Total Revenue: $780,505
Average Revenue: $192,242.15